This is the latest recevied weather packets stored in our database for station/object DG5TS-10. If no packets are shown the sender has not sent any weather packets the latest 10 day(s).
| Time | Temp. | Humidity | Pressure | Rain* | Wind** | Luminosity | Snow |
|---|---|---|---|---|---|---|---|
| 1777303349 | 38.33° C | 11% | 1022.8 hPa | - | - | - | - |
| 1777301549 | 34.44° C | 13% | 1022.9 hPa | - | - | - | - |
| 1777300649 | 35.56° C | 12% | 1023.2 hPa | - | - | - | - |
| 1777299749 | 38.33° C | 10% | 1023.4 hPa | - | - | - | - |
| 1777297948 | 33.89° C | 14% | 1023.7 hPa | - | - | - | - |
| 1777297048 | 31.11° C | 16% | 1023.7 hPa | - | - | - | - |
| 1777296148 | 31.67° C | 15% | 1023.9 hPa | - | - | - | - |
| 1777295248 | 31.11° C | 17% | 1024 hPa | - | - | - | - |
| 1777294348 | 31.67° C | 16% | 1024.1 hPa | - | - | - | - |
| 1777293448 | 31.67° C | 16% | 1024.2 hPa | - | - | - | - |
| 1777292548 | 31.67° C | 16% | 1024.2 hPa | - | - | - | - |
| 1777291647 | 31.67° C | 16% | 1024.4 hPa | - | - | - | - |
| 1777288947 | 31.11° C | 19% | 1024.6 hPa | - | - | - | - |
| 1777288047 | 30.56° C | 21% | 1024.6 hPa | - | - | - | - |
| 1777286247 | 27.78° C | 23% | 1024.8 hPa | - | - | - | - |
| 1777285347 | 27.22° C | 24% | 1025 hPa | - | - | - | - |
| 1777284446 | 26.67° C | 25% | 1025.1 hPa | - | - | - | - |
| 1777281740 | 21.67° C | 30% | 1025.4 hPa | - | - | - | - |
| 1777280840 | 21.11° C | 31% | 1025.6 hPa | - | - | - | - |
| 1777279940 | 20.56° C | 31% | 1025.7 hPa | - | - | - | - |
| 1777279040 | 20° C | 32% | 1025.8 hPa | - | - | - | - |
| 1777278140 | 20° C | 32% | 1025.9 hPa | - | - | - | - |
| 1777277240 | 18.89° C | 33% | 1025.9 hPa | - | - | - | - |
| 1777276340 | 18.89° C | 34% | 1025.8 hPa | - | - | - | - |
| 1777275439 | 18.33° C | 33% | 1025.7 hPa | - | - | - | - |
* Rain since midnight (hover to see other rain measurements)
** Current wind speed in m/s (hover to see current wind gust speed)